Terminal Aerodrome Forecast
Issued by NWS

Home | Current Version | Previous Version | Text Only | Print | Product List | Glossary On
Versions: 1 2 3 4 5 6 7 8 9 10 11 12 13 14 15 16 17
888
FTUS42 KGSP 250530
TAFAND
TAF
KAND 250530Z 2506/2606 02005KT P6SM OVC050
     FM250800 33005KT P6SM OVC025
     FM251000 27005KT P6SM OVC015
     FM251500 27008KT P6SM SCT025
     FM260000 24003KT P6SM SCT250=

USA.gov is the U.S. government's official web portal to all federal, state and local government web resources and services.